Terminal Aerodrome Forecast
Issued by NWS Cleveland, OH

Home | Current Version | Previous Version | Text Only | Print | Product List | Glossary On
Versions: 1 2 3 4 5 6 7 8 9 10 11 12 13 14 15 16 17 18 19 20 21 22 23 24 25 26 27 28
091
FTUS41 KCLE 230533
TAFMFD
TAF
KMFD 230533Z 2306/2406 22015KT P6SM -SHRA SCT030 BKN090
     FM231300 26016G24KT P6SM -SHRA SCT005 OVC030
     FM231700 28017G25KT P6SM SCT030 SCT090
     FM232300 28011KT P6SM SCT090=

USA.gov is the U.S. government's official web portal to all federal, state and local government web resources and services.